Bestevaer 2 — PG2801 — position and weather

sailwx.info

Track history (hours):
 
Tides and Currents Weather Stations Pressure Air Temp Water Temp Dewpoint Dewpoint Depression Visibility Wind Speed Wind Dir Waves Ship Positions

Bestevaer 2

Last reported at 2017-May-23 04:59 UTC. Time now 2017-May-23 10:52 UTC.
Position N 50°51' W 001°19'.

Length 16 m.

Type: Sailing vessel. MMSI: 244030672.

Date/timePositionNaut miles runAvg speedWind from/ knotsBaromVisibWave heightAir tempDewpointWater temp
2017-May-23 04:59N 50°51' W 001°19'3 5.5
2017-May-23 04:30N 50°48' W 001°17'2 4.7
2017-May-23 04:00N 50°47' W 001°13'2 4.4
2017-May-23 03:30N 50°46' W 001°10'2 4.5
2017-May-23 03:00N 50°46' W 001°07'2 4.5
2017-May-23 02:30N 50°44' W 001°04'2 4.2
2017-May-23 02:00N 50°44' W 001°01'2 3.9
2017-May-23 01:30N 50°43' W 000°58'2 4.2
2017-May-23 01:00N 50°42' W 000°55'4 4.4
2017-May-23 00:00N 50°40' W 000°49'2 3.3
2017-May-22 23:19N 50°39' W 000°46'1 4.1
2017-May-22 22:59N 50°38' W 000°44'3 5.6
2017-May-22 22:30N 50°38' W 000°40'3 6.0
2017-May-22 22:00N 50°38' W 000°35'4 7.1
2017-May-22 21:30N 50°38' W 000°29'4 7.2
2017-May-22 20:58N 50°37' W 000°23'3 6.4
2017-May-22 20:30N 50°37' W 000°19'3 6.0
2017-May-22 20:00N 50°38' W 000°14'3 5.2
2017-May-22 19:31N 50°38' W 000°10'3 5.3
2017-May-22 19:00N 50°38' W 000°06'2 5.0
2017-May-22 18:30N 50°39' W 000°02'2 4.9
2017-May-22 18:01N 50°39' E 000°02'3 5.0
2017-May-22 17:30N 50°40' E 000°06'2 5.0
2017-May-22 17:01N 50°40' E 000°10'3 5.2
2017-May-22 16:30N 50°41' E 000°14'3 5.5
2017-May-22 16:01N 50°41' E 000°18'3 6.1
2017-May-22 15:31N 50°42' E 000°23'3 6.6
2017-May-22 15:01N 50°43' E 000°27'8 7.5
2017-May-22 13:59N 50°46' E 000°38'4 7.9
2017-May-22 13:30N 50°48' E 000°44'4 7.7
2017-May-22 13:00N 50°50' E 000°49'21 6.4
2017-May-22 09:43N 51°03' E 001°16'1 5.0
2017-May-22 09:29N 51°03' E 001°17'2 4.8
2017-May-22 09:00N 51°05' E 001°20'2 4.2
2017-May-22 08:30N 51°06' E 001°23'2 4.0
2017-May-22 08:01N 51°07' E 001°26'2 4.0
2017-May-22 07:30N 51°08' E 001°28'2 4.4
2017-May-22 07:00N 51°09' E 001°31'3 6.5
2017-May-22 06:30N 51°11' E 001°35'4 7.3
2017-May-22 06:00N 51°14' E 001°39'4 8.8
2017-May-22 05:30N 51°18' E 001°42'5 9.4
2017-May-22 05:00N 51°23' E 001°44'4 8.5
2017-May-22 04:30N 51°27' E 001°47'4 7.8
2017-May-22 04:00N 51°30' E 001°51'4 7.8
2017-May-22 03:30N 51°32' E 001°56'4 7.2
2017-May-22 03:00N 51°35' E 002°00'3 7.0
2017-May-22 02:30N 51°37' E 002°04'3 6.3
2017-May-22 02:00N 51°39' E 002°08'3 5.7
2017-May-22 01:30N 51°41' E 002°11'3 5.4
2017-May-22 00:59N 51°43' E 002°14'2 5.0
2017-May-22 00:30N 51°45' E 002°17'3 6.3
2017-May-21 23:59N 51°47' E 002°21'3 5.8
2017-May-21 23:25N 51°49' E 002°25'60 6.5
2017-May-21 14:10N 52°30' E 003°38'15 5.7
2017-May-21 11:36N 52°35' E 004°00'0 4.7
2017-May-21 11:30N 52°35' E 004°01'3 4.7
2017-May-21 10:47N 52°34' E 004°06'1 4.9
2017-May-21 10:30N 52°34' E 004°09'2 4.5
2017-May-21 10:00N 52°34' E 004°12'2 5.1
2017-May-21 09:30N 52°32' E 004°16'3 5.1
2017-May-21 09:00N 52°31' E 004°19'2 4.9
2017-May-21 08:30N 52°30' E 004°23'3 5.4
2017-May-21 08:00N 52°29' E 004°27'3 6.1
2017-May-21 07:30N 52°28' E 004°32'1 2.3
2017-May-21 07:00N 52°28' E 004°33'0 0.2
2017-May-21 06:28N 52°28' E 004°34'0 0.0
2017-May-21 05:58N 52°28' E 004°34'0 0.0
2017-May-21 05:30N 52°28' E 004°34'0 0.0
2017-May-21 05:00N 52°28' E 004°34'0 0.0
2017-May-21 04:30N 52°28' E 004°34'0 0.0
2017-May-21 04:00N 52°28' E 004°34'0 0.0
2017-May-21 03:30N 52°28' E 004°34'0 0.0
2017-May-21 03:00N 52°28' E 004°34'0 0.0
2017-May-21 02:30N 52°28' E 004°34'0 0.0
2017-May-21 02:00N 52°28' E 004°34'0 0.0
2017-May-21 01:30N 52°28' E 004°34'0 0.0
2017-May-21 01:00N 52°28' E 004°34'0 0.0
2017-May-21 00:30N 52°28' E 004°34'0 0.0
2017-May-21 00:00N 52°28' E 004°34'0 0.0
2017-May-20 23:30N 52°28' E 004°34'0 0.0
2017-May-20 23:00N 52°28' E 004°34'0 0.0
2017-May-20 22:30N 52°28' E 004°34'0 0.0
2017-May-20 22:00N 52°28' E 004°34'0 0.0
2017-May-20 21:30N 52°28' E 004°34'0 0.0
2017-May-20 21:00N 52°28' E 004°34'0 0.0
2017-May-20 20:30N 52°28' E 004°34'0 0.0
2017-May-20 20:00N 52°28' E 004°34'0 0.0
2017-May-20 19:30N 52°28' E 004°34'0 0.0
2017-May-20 19:00N 52°28' E 004°34'0 0.0
2017-May-20 18:30N 52°28' E 004°34'0 0.0
2017-May-20 18:00N 52°28' E 004°34'0 0.0
2017-May-20 17:30N 52°28' E 004°34'0 0.0
2017-May-20 17:00N 52°28' E 004°34'0 0.0
2017-May-20 16:30N 52°28' E 004°34'0 0.0
2017-May-20 16:00N 52°28' E 004°34'0 0.0
2017-May-20 15:30N 52°28' E 004°34'0 0.0
2017-May-20 15:00N 52°28' E 004°34'0 0.0
2017-May-20 14:30N 52°28' E 004°34'0 0.0
2017-May-20 13:30N 52°28' E 004°34'0 0.0
2017-May-20 13:00N 52°28' E 004°34'0 0.5
2017-May-20 12:30N 52°28' E 004°34'2 3.2
2017-May-20 12:00N 52°28' E 004°36'3 5.5
2017-May-20 11:30N 52°27' E 004°41'3 6.6
2017-May-20 11:00N 52°26' E 004°46'3 7.0
2017-May-20 10:30N 52°25' E 004°51'1 0.1
2017-May-19 12:17N 52°24' E 004°53'0 0.0
2017-May-19 11:59N 52°24' E 004°53'0 0.0
2017-May-18 17:58N 52°24' E 004°53'0 0.0
2017-May-18 17:28N 52°24' E 004°53'0 0.1
2017-May-18 17:00N 52°24' E 004°53'3 5.1
2017-May-18 16:30N 52°23' E 004°57'1 1.8
2017-May-18 15:59N 52°23' E 004°58'0 0.0
2017-May-18 15:29N 52°23' E 004°58'0 0.0
2017-May-18 14:58N 52°23' E 004°58'1 1.5
2017-May-18 14:00N 52°22' E 005°00'4 7.3
2017-May-18 13:30N 52°24' E 005°06'4 7.3
2017-May-18 13:00N 52°27' E 005°09'4 7.3
2017-May-18 12:30N 52°30' E 005°12'4 7.3
2017-May-18 12:00N 52°34' E 005°13'4 7.3
2017-May-18 11:30N 52°37' E 005°13'4 7.5
2017-May-18 11:00N 52°41' E 005°16'2 4.1
2017-May-18 10:30N 52°42' E 005°18'3 6.8
2017-May-18 10:00N 52°45' E 005°20'4 7.4
2017-May-18 09:30N 52°49' E 005°20'4 7.2
2017-May-18 09:00N 52°53' E 005°20'3 6.6
2017-May-18 08:30N 52°56' E 005°20'3 6.6
2017-May-18 08:00N 52°59' E 005°19'4 7.0
2017-May-18 07:30N 53°03' E 005°21'1 2.7
2017-May-18 07:00N 53°03' E 005°23'1 1.1
2017-May-18 06:28N 53°03' E 005°24'0 0.0
2017-May-18 05:58N 53°03' E 005°24'0 0.0
2017-May-18 05:28N 53°03' E 005°24'0 0.0
2017-May-18 04:58N 53°03' E 005°24'0 0.0
2017-May-18 04:25N 53°03' E 005°24'0 0.0
2017-May-18 03:58N 53°03' E 005°24'0 0.0
2017-May-18 03:25N 53°03' E 005°24'0 0.0
2017-May-18 02:55N 53°03' E 005°24'0 0.0
2017-May-18 02:25N 53°03' E 005°24'0 0.0
2017-May-18 01:58N 53°03' E 005°24'0 0.0
2017-May-18 01:28N 53°03' E 005°24'0 0.0
2017-May-18 00:58N 53°03' E 005°24'0 0.0
2017-May-18 00:28N 53°03' E 005°24'0 0.0
2017-May-17 23:58N 53°03' E 005°24'0 0.0
2017-May-17 23:28N 53°03' E 005°24'0 0.0
2017-May-17 22:58N 53°03' E 005°24'0 0.0
2017-May-17 22:28N 53°03' E 005°24'0 0.0
2017-May-17 21:58N 53°03' E 005°24'0 0.0
2017-May-17 21:28N 53°03' E 005°24'0 0.0
2017-May-17 20:58N 53°03' E 005°24'0 0.0
2017-May-17 20:28N 53°03' E 005°24'0 0.0
2017-May-17 19:58N 53°03' E 005°24'0 0.0
2017-May-17 19:28N 53°03' E 005°24'0 0.0
2017-May-17 18:55N 53°03' E 005°24'0 0.0
2017-May-17 18:25N 53°03' E 005°24'0 0.0
2017-May-17 17:58N 53°03' E 005°24'0 0.0
2017-May-17 17:28N 53°03' E 005°24'  
Track history (hours):
 
Tides and Currents Weather Stations Pressure Air Temp Water Temp Dewpoint Dewpoint Depression Visibility Wind Speed Wind Dir Waves Ship Positions

Bestevaer 2

Last reported at 2017-May-23 04:59 UTC. Time now 2017-May-23 10:52 UTC.
Position N 50°51' W 001°19'.

Length 16 m.

Type: Sailing vessel. MMSI: 244030672.

Date/timePositionNaut miles runAvg speedWind from/ knotsBaromVisibWave heightAir tempDewpointWater temp
2017-May-23 04:59N 50°51' W 001°19'3 5.5
2017-May-23 04:30N 50°48' W 001°17'2 4.7
2017-May-23 04:00N 50°47' W 001°13'2 4.4
2017-May-23 03:30N 50°46' W 001°10'2 4.5
2017-May-23 03:00N 50°46' W 001°07'2 4.5
2017-May-23 02:30N 50°44' W 001°04'2 4.2
2017-May-23 02:00N 50°44' W 001°01'2 3.9
2017-May-23 01:30N 50°43' W 000°58'2 4.2
2017-May-23 01:00N 50°42' W 000°55'4 4.4
2017-May-23 00:00N 50°40' W 000°49'2 3.3
2017-May-22 23:19N 50°39' W 000°46'1 4.1
2017-May-22 22:59N 50°38' W 000°44'3 5.6
2017-May-22 22:30N 50°38' W 000°40'3 6.0
2017-May-22 22:00N 50°38' W 000°35'4 7.1
2017-May-22 21:30N 50°38' W 000°29'4 7.2
2017-May-22 20:58N 50°37' W 000°23'3 6.4
2017-May-22 20:30N 50°37' W 000°19'3 6.0
2017-May-22 20:00N 50°38' W 000°14'3 5.2
2017-May-22 19:31N 50°38' W 000°10'3 5.3
2017-May-22 19:00N 50°38' W 000°06'2 5.0
2017-May-22 18:30N 50°39' W 000°02'2 4.9
2017-May-22 18:01N 50°39' E 000°02'3 5.0
2017-May-22 17:30N 50°40' E 000°06'2 5.0
2017-May-22 17:01N 50°40' E 000°10'3 5.2
2017-May-22 16:30N 50°41' E 000°14'3 5.5
2017-May-22 16:01N 50°41' E 000°18'3 6.1
2017-May-22 15:31N 50°42' E 000°23'3 6.6
2017-May-22 15:01N 50°43' E 000°27'8 7.5
2017-May-22 13:59N 50°46' E 000°38'4 7.9
2017-May-22 13:30N 50°48' E 000°44'4 7.7
2017-May-22 13:00N 50°50' E 000°49'21 6.4
2017-May-22 09:43N 51°03' E 001°16'1 5.0
2017-May-22 09:29N 51°03' E 001°17'2 4.8
2017-May-22 09:00N 51°05' E 001°20'2 4.2
2017-May-22 08:30N 51°06' E 001°23'2 4.0
2017-May-22 08:01N 51°07' E 001°26'2 4.0
2017-May-22 07:30N 51°08' E 001°28'2 4.4
2017-May-22 07:00N 51°09' E 001°31'3 6.5
2017-May-22 06:30N 51°11' E 001°35'4 7.3
2017-May-22 06:00N 51°14' E 001°39'4 8.8
2017-May-22 05:30N 51°18' E 001°42'5 9.4
2017-May-22 05:00N 51°23' E 001°44'4 8.5
2017-May-22 04:30N 51°27' E 001°47'4 7.8
2017-May-22 04:00N 51°30' E 001°51'4 7.8
2017-May-22 03:30N 51°32' E 001°56'4 7.2
2017-May-22 03:00N 51°35' E 002°00'3 7.0
2017-May-22 02:30N 51°37' E 002°04'3 6.3
2017-May-22 02:00N 51°39' E 002°08'3 5.7
2017-May-22 01:30N 51°41' E 002°11'3 5.4
2017-May-22 00:59N 51°43' E 002°14'2 5.0
2017-May-22 00:30N 51°45' E 002°17'3 6.3
2017-May-21 23:59N 51°47' E 002°21'3 5.8
2017-May-21 23:25N 51°49' E 002°25'60 6.5
2017-May-21 14:10N 52°30' E 003°38'15 5.7
2017-May-21 11:36N 52°35' E 004°00'0 4.7
2017-May-21 11:30N 52°35' E 004°01'3 4.7
2017-May-21 10:47N 52°34' E 004°06'1 4.9
2017-May-21 10:30N 52°34' E 004°09'2 4.5
2017-May-21 10:00N 52°34' E 004°12'2 5.1
2017-May-21 09:30N 52°32' E 004°16'3 5.1
2017-May-21 09:00N 52°31' E 004°19'2 4.9
2017-May-21 08:30N 52°30' E 004°23'3 5.4
2017-May-21 08:00N 52°29' E 004°27'3 6.1
2017-May-21 07:30N 52°28' E 004°32'1 2.3
2017-May-21 07:00N 52°28' E 004°33'0 0.2
2017-May-21 06:28N 52°28' E 004°34'0 0.0
2017-May-21 05:58N 52°28' E 004°34'0 0.0
2017-May-21 05:30N 52°28' E 004°34'0 0.0
2017-May-21 05:00N 52°28' E 004°34'0 0.0
2017-May-21 04:30N 52°28' E 004°34'0 0.0
2017-May-21 04:00N 52°28' E 004°34'0 0.0
2017-May-21 03:30N 52°28' E 004°34'0 0.0
2017-May-21 03:00N 52°28' E 004°34'0 0.0
2017-May-21 02:30N 52°28' E 004°34'0 0.0
2017-May-21 02:00N 52°28' E 004°34'0 0.0
2017-May-21 01:30N 52°28' E 004°34'0 0.0
2017-May-21 01:00N 52°28' E 004°34'0 0.0
2017-May-21 00:30N 52°28' E 004°34'0 0.0
2017-May-21 00:00N 52°28' E 004°34'0 0.0
2017-May-20 23:30N 52°28' E 004°34'0 0.0
2017-May-20 23:00N 52°28' E 004°34'0 0.0
2017-May-20 22:30N 52°28' E 004°34'0 0.0
2017-May-20 22:00N 52°28' E 004°34'0 0.0
2017-May-20 21:30N 52°28' E 004°34'0 0.0
2017-May-20 21:00N 52°28' E 004°34'0 0.0
2017-May-20 20:30N 52°28' E 004°34'0 0.0
2017-May-20 20:00N 52°28' E 004°34'0 0.0
2017-May-20 19:30N 52°28' E 004°34'0 0.0
2017-May-20 19:00N 52°28' E 004°34'0 0.0
2017-May-20 18:30N 52°28' E 004°34'0 0.0
2017-May-20 18:00N 52°28' E 004°34'0 0.0
2017-May-20 17:30N 52°28' E 004°34'0 0.0
2017-May-20 17:00N 52°28' E 004°34'0 0.0
2017-May-20 16:30N 52°28' E 004°34'0 0.0
2017-May-20 16:00N 52°28' E 004°34'0 0.0
2017-May-20 15:30N 52°28' E 004°34'0 0.0
2017-May-20 15:00N 52°28' E 004°34'0 0.0
2017-May-20 14:30N 52°28' E 004°34'0 0.0
2017-May-20 13:30N 52°28' E 004°34'0 0.0
2017-May-20 13:00N 52°28' E 004°34'0 0.5
2017-May-20 12:30N 52°28' E 004°34'2 3.2
2017-May-20 12:00N 52°28' E 004°36'3 5.5
2017-May-20 11:30N 52°27' E 004°41'3 6.6
2017-May-20 11:00N 52°26' E 004°46'3 7.0
2017-May-20 10:30N 52°25' E 004°51'1 0.1
2017-May-19 12:17N 52°24' E 004°53'0 0.0
2017-May-19 11:59N 52°24' E 004°53'0 0.0
2017-May-18 17:58N 52°24' E 004°53'0 0.0
2017-May-18 17:28N 52°24' E 004°53'0 0.1
2017-May-18 17:00N 52°24' E 004°53'3 5.1
2017-May-18 16:30N 52°23' E 004°57'1 1.8
2017-May-18 15:59N 52°23' E 004°58'0 0.0
2017-May-18 15:29N 52°23' E 004°58'0 0.0
2017-May-18 14:58N 52°23' E 004°58'1 1.5
2017-May-18 14:00N 52°22' E 005°00'4 7.3
2017-May-18 13:30N 52°24' E 005°06'4 7.3
2017-May-18 13:00N 52°27' E 005°09'4 7.3
2017-May-18 12:30N 52°30' E 005°12'4 7.3
2017-May-18 12:00N 52°34' E 005°13'4 7.3
2017-May-18 11:30N 52°37' E 005°13'4 7.5
2017-May-18 11:00N 52°41' E 005°16'2 4.1
2017-May-18 10:30N 52°42' E 005°18'3 6.8
2017-May-18 10:00N 52°45' E 005°20'4 7.4
2017-May-18 09:30N 52°49' E 005°20'4 7.2
2017-May-18 09:00N 52°53' E 005°20'3 6.6
2017-May-18 08:30N 52°56' E 005°20'3 6.6
2017-May-18 08:00N 52°59' E 005°19'4 7.0
2017-May-18 07:30N 53°03' E 005°21'1 2.7
2017-May-18 07:00N 53°03' E 005°23'1 1.1
2017-May-18 06:28N 53°03' E 005°24'0 0.0
2017-May-18 05:58N 53°03' E 005°24'0 0.0
2017-May-18 05:28N 53°03' E 005°24'0 0.0
2017-May-18 04:58N 53°03' E 005°24'0 0.0
2017-May-18 04:25N 53°03' E 005°24'0 0.0
2017-May-18 03:58N 53°03' E 005°24'0 0.0
2017-May-18 03:25N 53°03' E 005°24'0 0.0
2017-May-18 02:55N 53°03' E 005°24'0 0.0
2017-May-18 02:25N 53°03' E 005°24'0 0.0
2017-May-18 01:58N 53°03' E 005°24'0 0.0
2017-May-18 01:28N 53°03' E 005°24'0 0.0
2017-May-18 00:58N 53°03' E 005°24'0 0.0
2017-May-18 00:28N 53°03' E 005°24'0 0.0
2017-May-17 23:58N 53°03' E 005°24'0 0.0
2017-May-17 23:28N 53°03' E 005°24'0 0.0
2017-May-17 22:58N 53°03' E 005°24'0 0.0
2017-May-17 22:28N 53°03' E 005°24'0 0.0
2017-May-17 21:58N 53°03' E 005°24'0 0.0
2017-May-17 21:28N 53°03' E 005°24'0 0.0
2017-May-17 20:58N 53°03' E 005°24'0 0.0
2017-May-17 20:28N 53°03' E 005°24'0 0.0
2017-May-17 19:58N 53°03' E 005°24'0 0.0
2017-May-17 19:28N 53°03' E 005°24'0 0.0
2017-May-17 18:55N 53°03' E 005°24'0 0.0
2017-May-17 18:25N 53°03' E 005°24'0 0.0
2017-May-17 17:58N 53°03' E 005°24'0 0.0
2017-May-17 17:28N 53°03' E 005°24'  

Dump ship's entire track history